Time;durP1;ratioP1;P1;durP2;ratioP2;P2;SDS_P1;SDS_P2;PMS_P1;PMS_P2;Temp;Humidity;BMP_temperature;BMP_pressure;BME280_temperature;BME280_humidity;BME280_pressure;Samples;Min_cycle;Max_cycle;Signal;HPM_P1;HPM_P2
2022/03/11 00:01:43;;;;;;;25.77;14.80;;;9.50;99.90;;;;;;5052243;28;20302;-74
2022/03/11 00:04:08;;;;;;;25.27;15.17;;;9.50;99.90;;;;;;5045039;28;20170;-74
2022/03/11 00:06:35;;;;;;;27.17;15.60;;;9.50;99.90;;;;;;5032260;28;20215;-74
2022/03/11 00:09:01;;;;;;;26.70;15.70;;;9.60;99.90;;;;;;5031223;28;20664;-75
2022/03/11 00:11:27;;;;;;;26.13;14.70;;;9.60;99.90;;;;;;5031597;28;20174;-74
2022/03/11 00:13:53;;;;;;;28.33;15.07;;;9.60;99.90;;;;;;5030874;28;20193;-74
2022/03/11 00:16:19;;;;;;;27.03;15.53;;;9.60;99.90;;;;;;5030490;28;20265;-73
2022/03/11 00:18:45;;;;;;;29.47;15.77;;;9.70;99.90;;;;;;5031520;28;20668;-73
2022/03/11 00:21:13;;;;;;;28.97;15.53;;;9.70;99.90;;;;;;5029690;28;20220;-73
2022/03/11 00:23:40;;;;;;;27.40;16.20;;;9.70;99.90;;;;;;5031150;28;20201;-73
2022/03/11 00:26:06;;;;;;;28.70;17.03;;;9.70;99.90;;;;;;5030025;28;20182;-72
2022/03/11 00:28:32;;;;;;;32.93;17.53;;;9.70;99.90;;;;;;5031154;28;20174;-74
2022/03/11 00:30:57;;;;;;;28.73;15.87;;;9.80;99.90;;;;;;5030912;28;20236;-73
2022/03/11 00:33:23;;;;;;;29.37;16.83;;;9.80;99.90;;;;;;5031962;28;20596;-73
2022/03/11 00:35:49;;;;;;;27.00;16.30;;;9.80;99.90;;;;;;5030541;28;20624;-74
2022/03/11 00:38:16;;;;;;;26.27;16.97;;;9.80;99.90;;;;;;5030950;28;20182;-74
2022/03/11 00:40:42;;;;;;;28.23;17.43;;;9.80;99.90;;;;;;5028611;28;20205;-73
2022/03/11 00:43:07;;;;;;;28.10;16.37;;;9.90;99.90;;;;;;5013181;28;20231;-75
2022/03/11 00:45:33;;;;;;;36.73;17.43;;;9.90;99.90;;;;;;5029418;28;20178;-78
2022/03/11 00:47:59;;;;;;;28.37;16.47;;;9.90;99.90;;;;;;5030608;28;20186;-77
2022/03/11 00:50:25;;;;;;;31.63;16.53;;;9.90;99.90;;;;;;5030029;28;20225;-74
2022/03/11 00:52:52;;;;;;;25.33;15.57;;;10.00;99.90;;;;;;5031647;28;20619;-74
2022/03/11 00:55:18;;;;;;;31.67;17.30;;;10.00;99.90;;;;;;5031268;28;20178;-74
2022/03/11 00:57:44;;;;;;;28.10;15.57;;;10.00;99.90;;;;;;5031869;28;20276;-77
2022/03/11 01:00:10;;;;;;;25.50;15.53;;;10.00;99.90;;;;;;5031278;28;20255;-77
2022/03/11 01:02:38;;;;;;;29.43;16.13;;;10.10;99.90;;;;;;5030893;28;20259;-77
2022/03/11 01:05:06;;;;;;;27.77;14.40;;;10.20;99.90;;;;;;5013665;28;20167;-76
2022/03/11 01:07:32;;;;;;;22.83;15.40;;;10.20;99.90;;;;;;5031762;28;20182;-75
2022/03/11 01:09:58;;;;;;;24.67;14.27;;;10.20;99.90;;;;;;5030989;28;20193;-76
2022/03/11 01:12:24;;;;;;;28.70;15.27;;;10.30;99.90;;;;;;5031235;28;20185;-76
2022/03/11 01:14:49;;;;;;;24.80;13.07;;;10.40;99.90;;;;;;5028502;28;20268;-75
2022/03/11 01:17:15;;;;;;;21.83;13.57;;;10.40;99.90;;;;;;5030067;28;20174;-76
2022/03/11 01:19:41;;;;;;;21.60;12.93;;;10.40;99.90;;;;;;5030184;28;20208;-76
2022/03/11 01:22:07;;;;;;;24.73;13.93;;;10.40;99.90;;;;;;5030305;28;20644;-74
2022/03/11 01:24:33;;;;;;;23.43;14.33;;;10.50;99.90;;;;;;5013118;28;20173;-75
2022/03/11 01:26:59;;;;;;;25.53;14.00;;;10.50;99.90;;;;;;5028758;28;20185;-75
2022/03/11 01:29:25;;;;;;;25.93;13.53;;;10.40;99.90;;;;;;5030348;28;20174;-75
2022/03/11 01:31:53;;;;;;;23.70;12.90;;;10.40;99.90;;;;;;5030570;28;20257;-74
2022/03/11 01:34:19;;;;;;;26.70;13.03;;;10.50;99.90;;;;;;5030501;28;20652;-76
2022/03/11 01:36:46;;;;;;;18.37;11.80;;;10.50;99.90;;;;;;5030123;28;20224;-74
2022/03/11 01:39:12;;;;;;;20.60;11.60;;;10.60;99.90;;;;;;5031222;28;20269;-75
2022/03/11 01:41:38;;;;;;;20.67;11.87;;;10.60;99.90;;;;;;5030255;28;20214;-76
2022/03/11 01:44:08;;;;;;;19.87;11.47;;;10.70;99.90;;;;;;5030587;28;20177;-74
2022/03/11 01:46:35;;;;;;;18.57;10.40;;;10.70;99.90;;;;;;5030344;28;20668;-75
2022/03/11 01:49:02;;;;;;;21.03;10.00;;;10.70;99.90;;;;;;5030240;28;20174;-75
2022/03/11 01:51:30;;;;;;;15.83;9.97;;;10.80;99.90;;;;;;5028538;28;20221;-75
2022/03/11 01:53:57;;;;;;;15.53;8.77;;;10.90;99.90;;;;;;5029403;28;20206;-75
2022/03/11 01:56:23;;;;;;;12.20;8.53;;;11.00;99.90;;;;;;5029277;28;20173;-76
2022/03/11 01:58:53;;;;;;;13.33;7.73;;;11.00;99.90;;;;;;5028902;28;20281;-75
2022/03/11 02:01:20;;;;;;;17.47;9.33;;;11.00;99.90;;;;;;5029785;28;20284;-76
2022/03/11 02:03:45;;;;;;;14.33;8.77;;;11.00;99.90;;;;;;5029358;28;20656;-71
2022/03/11 02:06:13;;;;;;;12.10;7.90;;;11.00;99.90;;;;;;5030600;28;20182;-73
2022/03/11 02:08:39;;;;;;;18.87;9.27;;;11.00;99.90;;;;;;5030012;28;20182;-74
2022/03/11 02:11:06;;;;;;;13.17;7.90;;;11.00;99.90;;;;;;5030720;28;20174;-72
2022/03/11 02:14:01;;;;;;;13.43;7.97;;;11.00;99.90;;;;;;5030642;28;20197;-72
2022/03/11 02:16:30;;;;;;;15.67;8.67;;;11.00;99.90;;;;;;5012764;28;20220;-72
2022/03/11 02:18:57;;;;;;;13.57;7.30;;;11.00;99.90;;;;;;5029802;28;20332;-71
2022/03/11 02:21:25;;;;;;;14.60;8.17;;;11.00;99.90;;;;;;5029645;28;20271;-71
2022/03/11 02:23:56;;;;;;;11.90;6.90;;;11.00;99.90;;;;;;5029908;28;20193;-72
2022/03/11 02:26:24;;;;;;;11.37;6.30;;;11.00;99.90;;;;;;5029371;28;20197;-73
2022/03/11 02:28:51;;;;;;;9.07;5.73;;;11.00;99.90;;;;;;5010577;28;20170;-72
2022/03/11 02:31:19;;;;;;;13.73;7.30;;;10.90;99.90;;;;;;5027878;28;20294;-66
2022/03/11 02:33:44;;;;;;;11.33;6.53;;;10.90;99.90;;;;;;5030319;28;20230;-73
2022/03/11 02:36:10;;;;;;;11.10;6.97;;;10.90;99.90;;;;;;5030176;28;20652;-74
2022/03/11 02:38:36;;;;;;;12.43;6.60;;;10.80;99.90;;;;;;5028559;28;20686;-75
2022/03/11 02:41:02;;;;;;;10.93;5.63;;;10.80;99.90;;;;;;5030003;28;20206;-74
2022/03/11 02:43:28;;;;;;;11.53;6.60;;;10.80;99.90;;;;;;5030463;28;20662;-74
2022/03/11 02:45:54;;;;;;;12.57;5.90;;;10.80;99.90;;;;;;5030044;28;20720;-74
2022/03/11 02:48:19;;;;;;;9.33;6.03;;;10.90;99.90;;;;;;5030384;28;20452;-75
2022/03/11 02:50:45;;;;;;;16.63;6.43;;;10.80;99.90;;;;;;5029860;28;20228;-74
2022/03/11 02:53:11;;;;;;;9.43;5.70;;;10.80;99.90;;;;;;5030125;28;20211;-74
2022/03/11 02:55:36;;;;;;;13.20;6.47;;;10.80;99.90;;;;;;5029585;28;20671;-73
2022/03/11 02:58:02;;;;;;;11.87;6.33;;;10.80;99.90;;;;;;5029918;28;20181;-73
2022/03/11 03:00:28;;;;;;;12.50;6.00;;;10.80;99.90;;;;;;5030043;28;20259;-73
2022/03/11 03:02:54;;;;;;;14.37;6.33;;;10.80;99.90;;;;;;5033480;28;20671;-73
2022/03/11 03:05:20;;;;;;;13.10;6.57;;;10.80;99.90;;;;;;5033178;28;20575;-73
2022/03/11 03:07:45;;;;;;;11.80;6.40;;;10.70;99.90;;;;;;5033778;28;20185;-73
2022/03/11 03:10:11;;;;;;;10.57;6.20;;;10.80;99.90;;;;;;5033878;28;20174;-71
2022/03/11 03:12:38;;;;;;;11.77;5.73;;;10.80;99.90;;;;;;5033465;28;20185;-72
2022/03/11 03:15:04;;;;;;;8.67;5.83;;;10.80;99.90;;;;;;5033891;28;20308;-72
2022/03/11 03:17:30;;;;;;;12.57;6.13;;;10.80;99.90;;;;;;5033158;28;20231;-72
2022/03/11 03:19:56;;;;;;;16.23;7.23;;;10.90;99.90;;;;;;5033053;28;20225;-72
2022/03/11 03:22:21;;;;;;;10.37;5.33;;;10.80;99.90;;;;;;5033613;28;20184;-72
2022/03/11 03:24:47;;;;;;;12.67;5.77;;;10.80;99.90;;;;;;5032725;28;20698;-72
2022/03/11 03:27:13;;;;;;;14.33;6.43;;;10.80;99.90;;;;;;5032764;28;20235;-73
2022/03/11 03:29:39;;;;;;;8.20;4.47;;;10.80;99.90;;;;;;5032901;28;20722;-72
2022/03/11 03:32:05;;;;;;;9.03;5.10;;;10.80;99.90;;;;;;5032963;28;20202;-72
2022/03/11 03:34:33;;;;;;;8.90;4.07;;;10.90;99.90;;;;;;5033192;28;20174;-72
2022/03/11 03:37:03;;;;;;;10.67;5.57;;;10.80;99.90;;;;;;5032769;28;20166;-73
2022/03/11 03:39:28;;;;;;;10.83;5.60;;;10.80;99.90;;;;;;5031713;28;20260;-76
2022/03/11 03:41:55;;;;;;;12.70;6.10;;;10.80;99.90;;;;;;5032953;28;20313;-76
2022/03/11 03:44:21;;;;;;;13.40;6.03;;;10.80;99.90;;;;;;5033452;28;20173;-74
2022/03/11 03:46:47;;;;;;;12.37;6.17;;;10.80;99.90;;;;;;5032200;28;20197;-75
2022/03/11 03:49:13;;;;;;;14.47;6.87;;;10.80;99.90;;;;;;5033166;28;20213;-75
2022/03/11 03:51:39;;;;;;;11.17;5.93;;;10.80;99.90;;;;;;5032714;28;20186;-75
2022/03/11 03:54:06;;;;;;;15.97;6.00;;;10.70;99.90;;;;;;5033183;28;20227;-75
2022/03/11 03:56:34;;;;;;;12.80;6.07;;;10.70;99.90;;;;;;5032502;28;20661;-76
2022/03/11 03:59:04;;;;;;;11.37;6.17;;;10.70;99.90;;;;;;5014972;28;20174;-76
2022/03/11 04:01:32;;;;;;;18.30;5.97;;;10.70;99.90;;;;;;5032654;28;20214;-76
2022/03/11 04:03:57;;;;;;;15.27;6.33;;;10.70;99.90;;;;;;5032740;28;20178;-76
2022/03/11 04:06:24;;;;;;;6.87;4.40;;;10.60;99.90;;;;;;5032473;28;20186;-76
2022/03/11 04:08:50;;;;;;;10.97;5.87;;;10.60;99.90;;;;;;5032584;28;20178;-74
2022/03/11 04:11:16;;;;;;;12.53;5.90;;;10.50;99.90;;;;;;5032632;28;20235;-75
2022/03/11 04:13:42;;;;;;;14.63;5.47;;;10.50;99.90;;;;;;5031559;28;20178;-76
2022/03/11 04:16:08;;;;;;;8.00;4.63;;;10.40;99.90;;;;;;5032519;28;20227;-74
2022/03/11 04:18:34;;;;;;;12.73;5.87;;;10.40;99.90;;;;;;5032225;28;20630;-76
2022/03/11 04:21:00;;;;;;;9.63;5.53;;;10.40;99.90;;;;;;5032469;28;20209;-79
2022/03/11 04:23:26;;;;;;;11.87;6.23;;;10.40;99.90;;;;;;5032764;28;20589;-78
2022/03/11 04:25:51;;;;;;;8.33;5.00;;;10.40;99.90;;;;;;5032503;28;20716;-78
2022/03/11 04:28:17;;;;;;;10.53;5.30;;;10.30;99.90;;;;;;5032229;28;20189;-69
2022/03/11 04:30:43;;;;;;;13.83;5.37;;;10.30;99.90;;;;;;5030614;28;20205;-69
2022/03/11 04:33:08;;;;;;;14.70;4.93;;;10.20;99.90;;;;;;5032402;28;20174;-69
2022/03/11 04:35:34;;;;;;;10.33;5.33;;;10.20;99.90;;;;;;5030200;28;20668;-70
2022/03/11 04:38:00;;;;;;;15.57;5.53;;;10.20;99.90;;;;;;5031605;28;20719;-70
2022/03/11 04:40:26;;;;;;;10.97;4.50;;;10.10;99.90;;;;;;5014098;28;20765;-69
2022/03/11 04:42:51;;;;;;;8.03;3.83;;;10.40;99.90;;;;;;5032057;28;20174;-70
2022/03/11 04:45:17;;;;;;;10.97;4.33;;;10.10;99.90;;;;;;5032023;28;20535;-70
2022/03/11 04:47:44;;;;;;;8.80;3.43;;;10.10;99.90;;;;;;5031406;28;20189;-69
2022/03/11 04:50:09;;;;;;;8.50;4.07;;;10.00;99.90;;;;;;5013851;28;20320;-69
2022/03/11 04:52:35;;;;;;;8.00;4.00;;;10.00;99.90;;;;;;5031511;28;20301;-69
2022/03/11 04:55:02;;;;;;;9.43;4.70;;;10.00;99.90;;;;;;5031947;28;20192;-69
2022/03/11 04:57:28;;;;;;;9.10;4.60;;;10.00;99.90;;;;;;5031196;28;20199;-69
2022/03/11 04:59:54;;;;;;;11.77;4.50;;;9.90;99.90;;;;;;5031413;28;20311;-69
2022/03/11 05:02:27;;;;;;;9.00;4.93;;;10.00;99.90;;;;;;5031461;28;20196;-71
2022/03/11 05:04:53;;;;;;;10.00;4.70;;;9.90;99.90;;;;;;5030550;28;20220;-69
2022/03/11 05:07:19;;;;;;;17.80;4.50;;;9.90;99.90;;;;;;5031155;28;20192;-69
2022/03/11 05:09:45;;;;;;;7.17;4.20;;;9.90;99.90;;;;;;5031369;28;20199;-69
2022/03/11 05:12:11;;;;;;;9.17;4.50;;;9.90;99.90;;;;;;5031394;28;20188;-69
2022/03/11 05:14:38;;;;;;;12.13;5.10;;;9.90;99.90;;;;;;5013281;28;20543;-70
2022/03/11 05:17:04;;;;;;;10.67;4.47;;;9.90;99.90;;;;;;5030900;28;20182;-70
2022/03/11 05:19:29;;;;;;;11.90;4.70;;;9.90;99.90;;;;;;5030931;28;20177;-70
2022/03/11 05:21:55;;;;;;;10.67;4.93;;;9.80;99.90;;;;;;5030463;28;20214;-70
2022/03/11 05:24:21;;;;;;;12.10;4.63;;;9.80;99.90;;;;;;5029445;28;20185;-74
2022/03/11 05:26:48;;;;;;;8.07;4.53;;;9.80;99.90;;;;;;5013190;28;20185;-77
2022/03/11 05:29:14;;;;;;;8.57;4.27;;;9.80;99.90;;;;;;5030702;28;20239;-76
2022/03/11 05:31:39;;;;;;;9.63;3.57;;;9.80;99.90;;;;;;5030532;28;20253;-75
2022/03/11 05:34:05;;;;;;;11.97;4.47;;;9.70;99.90;;;;;;5030573;28;20180;-74
2022/03/11 05:36:32;;;;;;;13.63;4.97;;;9.70;99.90;;;;;;5013265;28;20181;-75
2022/03/11 05:38:57;;;;;;;10.07;4.70;;;9.70;99.90;;;;;;5030688;28;20180;-74
2022/03/11 05:41:23;;;;;;;11.77;4.50;;;9.70;99.90;;;;;;5030649;28;20218;-74
2022/03/11 05:43:48;;;;;;;9.67;4.43;;;9.70;99.90;;;;;;5031017;28;20590;-71
2022/03/11 05:46:14;;;;;;;11.23;4.27;;;9.70;99.90;;;;;;5030637;28;20306;-71
2022/03/11 05:48:40;;;;;;;9.07;4.90;;;9.70;99.90;;;;;;5030475;28;20181;-70
2022/03/11 05:51:06;;;;;;;11.63;5.40;;;9.70;99.90;;;;;;5030734;28;20218;-70
2022/03/11 05:53:32;;;;;;;7.93;3.37;;;9.70;99.90;;;;;;5030352;28;20178;-71
2022/03/11 05:55:57;;;;;;;11.20;4.87;;;9.70;99.90;;;;;;5029376;28;20232;-70
2022/03/11 05:58:23;;;;;;;10.00;4.57;;;9.60;99.90;;;;;;5030134;28;20260;-70
2022/03/11 06:00:49;;;;;;;13.90;5.93;;;9.60;99.90;;;;;;5030386;28;20201;-70
2022/03/11 06:03:15;;;;;;;12.53;5.83;;;9.60;99.90;;;;;;5029834;28;20709;-70
2022/03/11 06:05:41;;;;;;;10.60;5.27;;;9.70;99.90;;;;;;5030332;28;20169;-71
2022/03/11 06:08:06;;;;;;;11.63;5.47;;;9.70;99.90;;;;;;5029678;28;20212;-71
2022/03/11 06:10:32;;;;;;;11.37;5.60;;;9.70;99.90;;;;;;5030581;28;20547;-71
2022/03/11 06:12:58;;;;;;;10.93;5.30;;;9.70;99.90;;;;;;5030211;28;20661;-71
2022/03/11 06:15:23;;;;;;;10.37;5.70;;;9.60;99.90;;;;;;5030122;28;20178;-71
2022/03/11 06:17:49;;;;;;;9.70;5.10;;;9.70;99.90;;;;;;5030374;28;20181;-70
2022/03/11 06:20:15;;;;;;;11.50;6.07;;;9.70;99.90;;;;;;5029456;28;20205;-72
2022/03/11 06:22:50;;;;;;;11.63;5.47;;;9.70;99.90;;;;;;5029841;28;20519;-71
2022/03/11 06:25:17;;;;;;;11.77;5.90;;;9.70;99.90;;;;;;5029764;28;20173;-72
2022/03/11 06:27:43;;;;;;;10.20;5.33;;;9.70;99.90;;;;;;5029734;28;20235;-71
2022/03/11 06:30:09;;;;;;;11.47;6.30;;;9.70;99.90;;;;;;5028860;28;20546;-70
2022/03/11 06:32:42;;;;;;;9.37;5.87;;;9.70;99.90;;;;;;5030173;28;20173;-70
2022/03/11 06:35:09;;;;;;;13.27;6.40;;;9.80;99.90;;;;;;5030368;28;20186;-71
2022/03/11 06:37:35;;;;;;;13.03;5.67;;;9.80;99.90;;;;;;5033097;28;20181;-70
2022/03/11 06:40:00;;;;;;;15.50;6.43;;;9.80;99.90;;;;;;5034251;28;20194;-70
2022/03/11 06:42:34;;;;;;;13.80;6.40;;;9.80;99.90;;;;;;5034019;28;20190;-70
2022/03/11 06:44:59;;;;;;;15.47;6.07;;;9.80;99.90;;;;;;5033838;28;20247;-71
2022/03/11 06:47:25;;;;;;;12.33;5.33;;;9.80;99.90;;;;;;5033844;28;20343;-70
2022/03/11 06:49:51;;;;;;;16.50;5.93;;;9.90;99.90;;;;;;5033989;28;20547;-71
2022/03/11 06:52:16;;;;;;;13.57;5.70;;;9.90;99.90;;;;;;5034149;28;20248;-70
2022/03/11 06:54:42;;;;;;;14.60;5.77;;;10.00;99.90;;;;;;5033860;28;20197;-69
2022/03/11 06:57:08;;;;;;;12.73;5.37;;;10.00;99.90;;;;;;5032767;28;20178;-70
2022/03/11 06:59:33;;;;;;;8.93;6.17;;;10.00;99.90;;;;;;5033795;28;20550;-69
2022/03/11 07:01:59;;;;;;;13.37;4.03;;;10.00;99.90;;;;;;5033251;28;20323;-70
2022/03/11 07:04:24;;;;;;;14.00;6.37;;;10.00;99.90;;;;;;5033966;28;20182;-69
2022/03/11 07:06:50;;;;;;;13.33;5.97;;;10.00;99.90;;;;;;5033825;28;20174;-70
2022/03/11 07:09:16;;;;;;;18.07;6.57;;;10.00;99.90;;;;;;5033686;28;20217;-71
2022/03/11 07:11:41;;;;;;;19.17;6.37;;;10.00;99.90;;;;;;5033563;28;20182;-72
2022/03/11 07:14:07;;;;;;;15.40;6.70;;;10.00;99.90;;;;;;5032285;28;20253;-72
2022/03/11 07:16:32;;;;;;;15.57;6.20;;;10.00;99.90;;;;;;5033501;28;20182;-73
2022/03/11 07:18:58;;;;;;;12.17;5.37;;;10.00;99.90;;;;;;5033126;28;20182;-73
2022/03/11 07:21:24;;;;;;;12.70;5.13;;;10.00;99.90;;;;;;5033544;28;20244;-73
2022/03/11 07:23:54;;;;;;;13.17;6.23;;;10.10;99.90;;;;;;5031348;28;20671;-75
2022/03/11 07:26:21;;;;;;;17.10;7.23;;;10.10;99.90;;;;;;5033330;28;20530;-74
2022/03/11 07:28:46;;;;;;;9.27;4.77;;;10.10;99.90;;;;;;5032969;28;20264;-74
2022/03/11 07:31:12;;;;;;;9.37;5.00;;;10.10;99.90;;;;;;5033518;28;20312;-75
2022/03/11 07:33:38;;;;;;;15.10;7.10;;;10.10;99.90;;;;;;5033062;28;20690;-71
2022/03/11 07:36:04;;;;;;;8.70;4.90;;;10.10;99.90;;;;;;5033021;28;20173;-70
2022/03/11 07:38:31;;;;;;;18.33;7.40;;;10.20;99.90;;;;;;5032749;28;20323;-70
2022/03/11 07:40:58;;;;;;;15.70;6.70;;;10.20;99.90;;;;;;5015013;28;20213;-71
2022/03/11 07:43:25;;;;;;;10.43;6.40;;;10.20;99.90;;;;;;5033048;28;20181;-70
2022/03/11 07:45:51;;;;;;;17.43;7.27;;;10.20;99.90;;;;;;5032935;28;20272;-70
2022/03/11 07:48:16;;;;;;;12.00;5.83;;;10.20;99.90;;;;;;5032108;28;20266;-71
2022/03/11 07:50:42;;;;;;;14.40;6.77;;;10.20;99.90;;;;;;5032549;28;20727;-71
2022/03/11 07:53:07;;;;;;;17.77;7.43;;;10.20;99.90;;;;;;5032991;28;20669;-70
2022/03/11 07:55:33;;;;;;;14.83;6.97;;;10.20;99.90;;;;;;5032766;28;20652;-70
2022/03/11 07:57:59;;;;;;;15.03;7.10;;;10.30;99.90;;;;;;5032033;28;20181;-70
2022/03/11 08:00:24;;;;;;;15.17;7.00;;;10.30;99.90;;;;;;5031015;28;20216;-70
2022/03/11 08:02:50;;;;;;;15.13;5.40;;;10.30;99.90;;;;;;5030802;28;20224;-76
2022/03/11 08:05:16;;;;;;;19.67;5.83;;;10.30;99.90;;;;;;5032560;28;20248;-76
2022/03/11 08:07:49;;;;;;;12.00;5.07;;;10.40;99.90;;;;;;5032394;28;20174;-76
2022/03/11 08:10:18;;;;;;;13.70;6.63;;;10.40;99.90;;;;;;5032857;28;20182;-75
2022/03/11 08:12:44;;;;;;;16.73;7.60;;;10.40;99.90;;;;;;5032665;28;20228;-74
2022/03/11 08:15:12;;;;;;;11.70;5.50;;;10.40;99.90;;;;;;5032061;28;20667;-74
2022/03/11 08:17:38;;;;;;;15.47;7.33;;;10.40;99.90;;;;;;5032207;28;20257;-78
2022/03/11 08:20:05;;;;;;;12.10;5.80;;;10.50;99.90;;;;;;5031394;28;20213;-69
2022/03/11 08:22:34;;;;;;;15.13;6.87;;;10.50;99.90;;;;;;5031804;28;20671;-66
2022/03/11 08:25:00;;;;;;;13.33;6.60;;;10.50;99.90;;;;;;5032406;28;20177;-65
2022/03/11 08:27:25;;;;;;;14.40;6.53;;;10.50;99.90;;;;;;5033964;28;20262;-72
2022/03/11 08:29:51;;;;;;;13.10;5.40;;;10.50;99.90;;;;;;5032116;28;20193;-70
2022/03/11 08:32:16;;;;;;;11.37;5.70;;;10.50;99.90;;;;;;5032544;28;20212;-70
2022/03/11 08:34:42;;;;;;;11.13;6.33;;;10.50;99.90;;;;;;5032144;28;20695;-70
2022/03/11 08:37:08;;;;;;;17.80;7.37;;;10.50;99.90;;;;;;5014164;28;20595;-69
2022/03/11 08:39:34;;;;;;;14.43;6.60;;;10.50;99.90;;;;;;5031709;28;20198;-69
2022/03/11 08:41:59;;;;;;;12.37;6.03;;;10.50;99.90;;;;;;5030835;28;20198;-64
2022/03/11 08:44:25;;;;;;;9.30;3.80;;;10.60;99.90;;;;;;5031376;28;20714;-65
2022/03/11 08:46:51;;;;;;;12.00;6.13;;;10.50;99.90;;;;;;5032061;28;20178;-65
2022/03/11 08:49:16;;;;;;;13.03;5.87;;;10.50;99.90;;;;;;5028824;28;20174;-61
2022/03/11 08:51:43;;;;;;;14.50;6.33;;;10.50;99.90;;;;;;5013501;28;20556;-65
2022/03/11 08:54:09;;;;;;;11.63;5.47;;;10.50;99.90;;;;;;5031480;28;20174;-64
2022/03/11 08:56:35;;;;;;;8.60;4.50;;;10.40;99.90;;;;;;5031674;28;20629;-64
2022/03/11 08:59:01;;;;;;;10.40;5.80;;;10.40;99.90;;;;;;5030783;28;20173;-63
2022/03/11 09:01:26;;;;;;;11.17;5.50;;;10.40;99.90;;;;;;5036813;28;20209;-63
2022/03/11 09:03:52;;;;;;;11.13;5.27;;;10.40;99.90;;;;;;5031256;28;20232;-63
2022/03/11 09:06:17;;;;;;;9.50;5.23;;;10.40;99.90;;;;;;5031183;28;20251;-63
2022/03/11 09:08:44;;;;;;;12.23;6.80;;;10.40;99.90;;;;;;5031049;28;20536;-62
2022/03/11 09:11:10;;;;;;;16.27;7.30;;;10.40;99.90;;;;;;5031176;28;20655;-62
2022/03/11 09:13:36;;;;;;;11.83;6.20;;;10.40;99.90;;;;;;5030978;28;20223;-63
2022/03/11 09:16:04;;;;;;;14.27;6.60;;;10.40;99.90;;;;;;5030551;28;20227;-64
2022/03/11 09:18:30;;;;;;;12.13;6.20;;;10.40;99.90;;;;;;5029395;28;20181;-63
2022/03/11 09:20:55;;;;;;;14.57;6.60;;;10.40;99.90;;;;;;5030681;28;20213;-63
2022/03/11 09:23:22;;;;;;;10.97;4.90;;;10.30;99.90;;;;;;5031284;28;20166;-62
2022/03/11 09:25:47;;;;;;;11.93;5.97;;;10.30;99.90;;;;;;5029618;28;20174;-64
2022/03/11 09:28:13;;;;;;;11.03;6.33;;;10.40;99.90;;;;;;5029356;28;20180;-63
2022/03/11 09:30:38;;;;;;;12.20;5.93;;;10.40;99.90;;;;;;5029372;28;20163;-63
2022/03/11 09:33:04;;;;;;;11.13;5.40;;;10.40;99.90;;;;;;5029363;28;20645;-63
2022/03/11 09:35:30;;;;;;;13.20;6.57;;;10.40;99.90;;;;;;5029027;28;20178;-63
2022/03/11 09:37:56;;;;;;;11.67;5.70;;;10.40;99.90;;;;;;5029455;28;20285;-62
2022/03/11 09:40:21;;;;;;;17.27;5.47;;;10.40;99.90;;;;;;5029951;28;20529;-62
2022/03/11 09:42:50;;;;;;;10.07;5.93;;;10.30;99.90;;;;;;5030979;28;20217;-62
2022/03/11 09:45:19;;;;;;;13.03;4.80;;;10.30;99.90;;;;;;5031088;28;20252;-62
2022/03/11 09:47:45;;;;;;;7.37;4.80;;;10.30;99.90;;;;;;5030931;28;20181;-63
2022/03/11 09:50:12;;;;;;;11.70;5.63;;;10.30;99.90;;;;;;5030938;28;20692;-63
2022/03/11 09:52:39;;;;;;;9.13;4.00;;;10.30;99.90;;;;;;5030871;28;20174;-63
2022/03/11 09:55:05;;;;;;;8.97;4.97;;;10.20;99.90;;;;;;5030991;28;20208;-64
2022/03/11 09:57:30;;;;;;;9.57;5.17;;;10.30;99.90;;;;;;5030977;28;20185;-63
2022/03/11 09:59:56;;;;;;;11.10;5.03;;;10.30;99.90;;;;;;5030820;28;20231;-63
2022/03/11 10:02:22;;;;;;;9.30;4.40;;;10.20;99.90;;;;;;5030786;28;20739;-64
2022/03/11 10:04:52;;;;;;;11.27;4.50;;;10.30;99.90;;;;;;5030827;28;20212;-64
2022/03/11 10:07:30;;;;;;;11.47;5.37;;;10.30;99.90;;;;;;5029421;28;20166;-63
2022/03/11 10:10:13;;;;;;;6.87;3.87;;;10.30;99.90;;;;;;5030800;28;20619;-63
2022/03/11 10:12:45;;;;;;;10.43;5.67;;;10.20;99.90;;;;;;5030141;28;20644;-63
2022/03/11 10:15:12;;;;;;;10.60;5.77;;;10.20;99.90;;;;;;5030577;28;20268;-63
2022/03/11 10:17:45;;;;;;;11.77;5.10;;;10.20;99.90;;;;;;5030367;28;20177;-63
2022/03/11 10:20:13;;;;;;;8.80;4.60;;;10.20;99.90;;;;;;5030423;28;20209;-63
2022/03/11 10:22:41;;;;;;;10.17;5.00;;;10.10;99.90;;;;;;5030673;28;20188;-63
2022/03/11 10:25:18;;;;;;;9.60;4.23;;;10.20;99.90;;;;;;5012715;28;20185;-63
2022/03/11 10:28:05;;;;;;;6.27;3.87;;;10.30;99.90;;;;;;5012816;28;20178;-63
2022/03/11 10:30:32;;;;;;;11.00;4.87;;;10.30;99.90;;;;;;5030417;28;20174;-63
2022/03/11 10:33:01;;;;;;;10.70;4.83;;;10.30;99.90;;;;;;5030674;28;20189;-63
2022/03/11 10:35:42;;;;;;;12.43;5.00;;;10.30;99.90;;;;;;5030556;28;20379;-63
2022/03/11 10:38:16;;;;;;;8.17;5.00;;;10.30;99.90;;;;;;5012666;28;20564;-63
2022/03/11 10:40:52;;;;;;;10.83;5.20;;;10.30;99.90;;;;;;5030190;28;20680;-64
2022/03/11 10:43:29;;;;;;;5.27;2.70;;;10.30;99.90;;;;;;5030462;28;20185;-63
2022/03/11 10:46:11;;;;;;;16.77;5.20;;;10.40;99.90;;;;;;5030326;28;20489;-63
2022/03/11 10:48:47;;;;;;;14.30;4.87;;;10.40;99.90;;;;;;5030306;28;20651;-63
2022/03/11 10:51:31;;;;;;;11.47;4.43;;;10.40;99.90;;;;;;5030250;28;20217;-63
2022/03/11 10:54:03;;;;;;;11.47;5.43;;;10.40;99.90;;;;;;5030096;28;20165;-64
2022/03/11 10:56:43;;;;;;;6.50;3.67;;;10.50;99.90;;;;;;5030422;28;20196;-64
2022/03/11 10:59:17;;;;;;;9.00;4.97;;;10.50;99.90;;;;;;5030226;28;20170;-64
2022/03/11 11:01:44;;;;;;;10.53;5.43;;;10.50;99.90;;;;;;5030156;28;20213;-65
2022/03/11 11:04:12;;;;;;;9.90;5.40;;;10.50;99.90;;;;;;5030253;28;20178;-62
2022/03/11 11:06:38;;;;;;;10.77;6.27;;;10.50;99.90;;;;;;5012468;28;20214;-63
2022/03/11 11:09:05;;;;;;;7.70;4.30;;;10.50;99.90;;;;;;5030142;28;20204;-64
2022/03/11 11:11:31;;;;;;;12.93;4.97;;;10.50;99.90;;;;;;5030246;28;20188;-63
2022/03/11 11:13:59;;;;;;;10.10;4.90;;;10.50;99.90;;;;;;5030099;28;20190;-63
2022/03/11 11:16:28;;;;;;;8.67;4.37;;;10.50;99.90;;;;;;5030016;28;20174;-63
2022/03/11 11:18:58;;;;;;;9.40;4.80;;;10.50;99.90;;;;;;5029934;28;20257;-64
2022/03/11 11:21:25;;;;;;;7.80;5.17;;;10.50;99.90;;;;;;5029991;28;20210;-64
2022/03/11 11:23:57;;;;;;;9.60;5.10;;;10.50;99.90;;;;;;5032968;28;20855;-64
2022/03/11 11:26:25;;;;;;;7.23;4.03;;;10.50;99.90;;;;;;5033455;28;20231;-64
2022/03/11 11:28:53;;;;;;;12.13;5.33;;;10.50;99.90;;;;;;5033774;28;20173;-64
2022/03/11 11:31:20;;;;;;;10.00;4.00;;;10.50;99.90;;;;;;5033506;28;20650;-64
2022/03/11 11:33:47;;;;;;;9.50;4.70;;;10.40;99.90;;;;;;5033540;28;20305;-64
2022/03/11 11:36:13;;;;;;;13.40;4.30;;;10.50;99.90;;;;;;5033300;28;20178;-64
2022/03/11 11:38:43;;;;;;;10.63;4.20;;;10.40;99.90;;;;;;5033266;28;20252;-64
2022/03/11 11:41:27;;;;;;;13.07;4.83;;;10.40;99.90;;;;;;5033180;28;20206;-63
2022/03/11 11:44:00;;;;;;;11.03;3.60;;;10.50;99.90;;;;;;5033030;28;20182;-63
2022/03/11 11:46:27;;;;;;;15.90;4.70;;;10.40;99.90;;;;;;5033244;28;20221;-63
2022/03/11 11:48:53;;;;;;;12.20;5.03;;;10.50;99.90;;;;;;5033058;28;20177;-63
2022/03/11 11:51:32;;;;;;;12.17;4.90;;;10.50;99.90;;;;;;5032970;28;20225;-64
2022/03/11 11:54:10;;;;;;;9.63;4.80;;;10.50;99.90;;;;;;5032767;28;20188;-64
2022/03/11 11:56:52;;;;;;;6.93;3.77;;;10.50;99.90;;;;;;5031855;28;20220;-63
2022/03/11 11:59:18;;;;;;;8.33;3.73;;;10.40;99.90;;;;;;5033029;28;20181;-63
2022/03/11 12:01:47;;;;;;;12.27;4.33;;;10.40;99.90;;;;;;5032996;28;20206;-64
2022/03/11 12:04:25;;;;;;;7.47;4.43;;;10.40;99.90;;;;;;5032978;28;20170;-64
2022/03/11 12:06:58;;;;;;;6.40;3.23;;;10.40;99.90;;;;;;5032948;28;20636;-64
2022/03/11 12:10:01;;;;;;;7.97;3.83;;;10.40;99.90;;;;;;5032848;28;20182;-64
2022/03/11 12:12:34;;;;;;;8.53;4.47;;;10.30;99.90;;;;;;5020238;28;20177;-64
2022/03/11 12:15:05;;;;;;;9.07;4.27;;;10.30;99.90;;;;;;5032660;28;20185;-63
2022/03/11 12:17:52;;;;;;;10.70;5.33;;;10.30;99.90;;;;;;5032719;28;20257;-62
2022/03/11 12:20:34;;;;;;;5.87;3.60;;;10.40;99.90;;;;;;5032608;28;20221;-64
2022/03/11 12:23:06;;;;;;;11.87;4.93;;;10.40;99.90;;;;;;5029158;28;20189;-64
2022/03/11 12:25:31;;;;;;;11.43;4.43;;;10.50;99.90;;;;;;5047389;28;20173;-64
2022/03/11 12:28:03;;;;;;;8.27;4.33;;;10.50;99.90;;;;;;5050757;28;20550;-63
2022/03/11 12:30:38;;;;;;;5.53;3.50;;;10.50;99.90;;;;;;5032444;28;20181;-64
2022/03/11 12:33:12;;;;;;;7.40;3.53;;;10.50;99.90;;;;;;5032353;28;20170;-64
2022/03/11 12:35:38;;;;;;;6.37;3.57;;;10.40;99.90;;;;;;5031515;28;20172;-63
2022/03/11 12:38:09;;;;;;;7.97;4.07;;;10.50;99.90;;;;;;5032547;28;20169;-64
2022/03/11 12:40:35;;;;;;;6.40;3.27;;;10.50;99.90;;;;;;5037220;28;20738;-64
2022/03/11 12:43:03;;;;;;;5.87;3.70;;;10.40;99.90;;;;;;5052290;28;20264;-64